createdAt,value
2022-08-23T00:02:22.946Z,98310.13
2022-08-23T00:05:03.748Z,98317.03
2022-08-23T00:07:39.586Z,98311.69
2022-08-23T00:10:10.078Z,98313.84
2022-08-23T00:12:37.460Z,98310.66
2022-08-23T00:15:05.186Z,98316.47
2022-08-23T00:17:34.098Z,98316.22
2022-08-23T00:20:04.443Z,98315.88
2022-08-23T00:22:31.090Z,98308.41
2022-08-23T00:24:57.702Z,98310.81
2022-08-23T00:27:24.426Z,98311.06
2022-08-23T00:29:53.659Z,98303.94
2022-08-23T00:32:23.671Z,98307.88
2022-08-23T00:34:50.734Z,98307.38
2022-08-23T00:37:18.757Z,98306.53
2022-08-23T00:39:45.523Z,98305.22
2022-08-23T00:42:31.739Z,98299.63
2022-08-23T00:45:16.885Z,98304.13
2022-08-23T00:47:45.038Z,98300.41
2022-08-23T00:50:27.749Z,98300.41
2022-08-23T00:53:23.511Z,98314.25
2022-08-23T00:55:52.382Z,98297.69
2022-08-23T00:58:20.862Z,98295.03
2022-08-23T01:00:50.190Z,98299.06
2022-08-23T01:03:18.563Z,98289.44
2022-08-23T01:05:56.548Z,98294.78
2022-08-23T01:08:26.121Z,98289.16
2022-08-23T01:11:00.404Z,98294.50
2022-08-23T01:13:36.104Z,98286.06
2022-08-23T01:16:10.391Z,98291.13
2022-08-23T01:18:38.185Z,98290.84
2022-08-23T01:21:10.531Z,98287.59
2022-08-23T01:23:55.666Z,98283.38
2022-08-23T01:26:25.060Z,98295.13
2022-08-23T01:28:53.645Z,98282.84
2022-08-23T01:31:22.607Z,98278.03
2022-08-23T01:33:56.906Z,98276.44
2022-08-23T01:36:23.639Z,98292.47
2022-08-23T01:38:50.464Z,98280.16
2022-08-23T01:41:17.364Z,98276.91
2022-08-23T01:43:44.016Z,98280.69
2022-08-23T01:46:13.433Z,98282.88
2022-08-23T01:48:40.646Z,98286.66
2022-08-23T01:51:07.812Z,98297.25
2022-08-23T01:53:34.667Z,98292.50
2022-08-23T01:56:02.508Z,98289.28
2022-08-23T01:58:31.530Z,98295.69
2022-08-23T02:00:58.474Z,98299.69
2022-08-23T02:03:25.209Z,98291.97
2022-08-23T02:08:38.881Z,98298.16
2022-08-23T02:11:11.468Z,98293.06
2022-08-23T02:13:39.618Z,98294.16
2022-08-23T02:16:06.479Z,98287.22
2022-08-23T02:18:33.296Z,98293.38
2022-08-23T02:21:00.461Z,98289.06
2022-08-23T02:23:27.976Z,98289.13
2022-08-23T02:25:54.973Z,98290.41
2022-08-23T02:28:23.556Z,98289.91
2022-08-23T02:30:51.327Z,98280.56
2022-08-23T02:33:18.889Z,98294.63
2022-08-23T02:35:47.029Z,98294.03
2022-08-23T02:38:13.867Z,98289.44
2022-08-23T02:40:41.437Z,98295.56
2022-08-23T02:43:08.499Z,98290.75
2022-08-23T02:45:36.579Z,98284.38
2022-08-23T02:48:08.175Z,98287.06
2022-08-23T02:50:35.824Z,98278.03
2022-08-23T02:53:02.535Z,98283.16
2022-08-23T02:55:29.280Z,98282.59
2022-08-23T02:57:56.150Z,98293.31
2022-08-23T03:00:23.501Z,98294.06
2022-08-23T03:02:50.310Z,98303.47
2022-08-23T03:05:17.742Z,98304.22
2022-08-23T03:07:45.046Z,98299.16
2022-08-23T03:10:12.424Z,98308.69
2022-08-23T03:12:39.324Z,98301.53
2022-08-23T03:15:06.879Z,98308.03
2022-08-23T03:17:34.596Z,98304.81
2022-08-23T03:20:01.264Z,98307.78
2022-08-23T03:22:28.032Z,98304.84
2022-08-23T03:24:54.661Z,98308.63
2022-08-23T03:27:21.256Z,98298.94
2022-08-23T03:29:47.896Z,98308.28
2022-08-23T03:32:15.568Z,98307.41
2022-08-23T03:34:42.763Z,98315.19
2022-08-23T03:37:09.528Z,98309.31
2022-08-23T03:39:36.208Z,98313.84
2022-08-23T03:42:02.922Z,98316.75
2022-08-23T03:44:29.681Z,98322.88
2022-08-23T03:46:56.296Z,98322.28
2022-08-23T03:49:23.023Z,98321.75
2022-08-23T03:51:49.673Z,98320.94
2022-08-23T03:54:16.327Z,98327.03
2022-08-23T03:56:59.842Z,98322.22
2022-08-23T03:59:28.022Z,98322.69
2022-08-23T04:01:54.844Z,98330.47
2022-08-23T04:04:22.221Z,98331.53
2022-08-23T04:06:49.052Z,98327.75
2022-08-23T04:09:16.934Z,98326.44
2022-08-23T04:11:44.100Z,98327.53
2022-08-23T04:14:13.033Z,98329.91
2022-08-23T04:16:40.398Z,98334.91
2022-08-23T04:19:09.044Z,98333.84
2022-08-23T04:21:37.935Z,98338.09
2022-08-23T04:24:05.059Z,98336.81
2022-08-23T04:26:33.078Z,98341.28
2022-08-23T04:29:00.129Z,98338.66
2022-08-23T04:31:26.846Z,98344.00
2022-08-23T04:33:56.483Z,98343.38
2022-08-23T04:36:23.765Z,98348.19
2022-08-23T04:38:51.541Z,98351.13
2022-08-23T04:41:34.167Z,98352.22
2022-08-23T04:44:00.883Z,98351.94
2022-08-23T04:46:27.766Z,98356.47
2022-08-23T04:48:54.387Z,98353.53
2022-08-23T04:51:22.277Z,98357.25
2022-08-23T04:53:49.074Z,98360.75
2022-08-23T04:56:15.875Z,98359.19
2022-08-23T04:58:42.499Z,98363.19
2022-08-23T05:01:10.935Z,98367.47
2022-08-23T05:03:38.235Z,98369.63
2022-08-23T05:06:05.362Z,98375.22
2022-08-23T05:08:32.319Z,98371.50
2022-08-23T05:11:02.118Z,98374.72
2022-08-23T05:13:30.082Z,98373.97
2022-08-23T05:15:59.324Z,98379.56
2022-08-23T05:18:27.083Z,98385.19
2022-08-23T05:20:53.994Z,98380.91
2022-08-23T05:23:23.507Z,98387.81
2022-08-23T05:26:01.010Z,98387.34
2022-08-23T05:28:32.202Z,98387.56
2022-08-23T05:31:03.219Z,98389.41
2022-08-23T05:33:31.707Z,98382.44
2022-08-23T05:35:58.840Z,98383.59
2022-08-23T05:38:26.294Z,98385.16
2022-08-23T05:40:55.228Z,98384.34
2022-08-23T05:43:22.643Z,98387.81
2022-08-23T05:45:58.726Z,98380.38
2022-08-23T05:48:25.368Z,98380.91
2022-08-23T05:50:54.559Z,98392.63
2022-08-23T05:53:21.165Z,98392.63
2022-08-23T05:55:48.372Z,98401.41
2022-08-23T05:58:15.094Z,98400.91
2022-08-23T06:00:41.798Z,98397.97
2022-08-23T06:03:09.241Z,98400.66
2022-08-23T06:05:40.749Z,98399.63
2022-08-23T06:08:07.525Z,98394.28
2022-08-23T06:10:39.270Z,98397.19
2022-08-23T06:13:08.237Z,98401.22
2022-08-23T06:15:34.826Z,98402.78
2022-08-23T06:18:02.207Z,98405.19
2022-08-23T06:20:29.101Z,98403.41
2022-08-23T06:22:55.692Z,98403.19
2022-08-23T06:25:22.305Z,98404.03
2022-08-23T06:27:48.933Z,98401.66
2022-08-23T06:30:16.122Z,98406.63
2022-08-23T06:32:42.797Z,98407.16
2022-08-23T06:35:32.986Z,98406.16
2022-08-23T06:37:57.204Z,98408.81
2022-08-23T06:40:27.706Z,98409.31
2022-08-23T06:42:54.922Z,98411.97
2022-08-23T06:45:33.688Z,98414.41
2022-08-23T06:48:01.592Z,98417.44
2022-08-23T06:50:32.441Z,98418.25
2022-08-23T06:52:59.367Z,98417.97
2022-08-23T06:55:25.989Z,98423.56
2022-08-23T06:57:52.571Z,98425.97
2022-08-23T07:00:22.303Z,98427.09
2022-08-23T07:02:50.257Z,98431.06
2022-08-23T07:05:17.018Z,98436.69
2022-08-23T07:07:44.610Z,98435.94
2022-08-23T07:10:11.634Z,98436.72
2022-08-23T07:12:41.954Z,98439.41
2022-08-23T07:15:10.068Z,98440.53
2022-08-23T07:17:36.722Z,98434.91
2022-08-23T07:20:03.892Z,98442.63
2022-08-23T07:22:30.499Z,98439.13
2022-08-23T07:24:57.547Z,98441.09
2022-08-23T07:27:24.686Z,98447.47
2022-08-23T07:29:51.273Z,98441.59
2022-08-23T07:32:18.703Z,98441.13
2022-08-23T07:34:45.548Z,98445.91
2022-08-23T07:37:15.784Z,98442.72
2022-08-23T07:39:43.520Z,98452.38
2022-08-23T07:42:23.440Z,98448.38
2022-08-23T07:44:51.860Z,98443.84
2022-08-23T07:47:19.786Z,98454.50
2022-08-23T07:49:47.056Z,98461.75
2022-08-23T07:52:13.730Z,98462.56
2022-08-23T07:54:40.487Z,98465.69
2022-08-23T07:57:10.238Z,98466.22
2022-08-23T07:59:37.035Z,98462.75
2022-08-23T08:02:03.940Z,98469.16
2022-08-23T08:04:30.601Z,98464.91
2022-08-23T08:07:17.685Z,98476.38
2022-08-23T08:09:45.393Z,98468.88
2022-08-23T08:12:12.043Z,98472.31
2022-08-23T08:14:38.748Z,98477.13
2022-08-23T08:17:05.391Z,98481.41
2022-08-23T08:19:31.977Z,98485.38
2022-08-23T08:21:58.594Z,98485.59
2022-08-23T08:24:25.245Z,98482.97
2022-08-23T08:26:52.074Z,98494.38
2022-08-23T08:29:18.747Z,98497.56
2022-08-23T08:31:51.310Z,98502.94
2022-08-23T08:34:20.378Z,98495.94
2022-08-23T08:36:53.715Z,98505.78
2022-08-23T08:39:24.601Z,98506.56
2022-08-23T08:42:07.744Z,98507.69
2022-08-23T08:44:46.252Z,98507.47
2022-08-23T08:47:24.863Z,98504.25
2022-08-23T08:49:56.758Z,98504.47
2022-08-23T08:52:31.998Z,98515.69
2022-08-23T08:55:06.804Z,98520.44
2022-08-23T08:57:40.688Z,98513.22
2022-08-23T09:00:14.220Z,98509.75
2022-08-23T09:02:42.670Z,98510.25
2022-08-23T09:05:14.745Z,98514.00
2022-08-23T09:08:02.413Z,98511.66
2022-08-23T09:10:59.643Z,98509.25
2022-08-23T09:13:55.447Z,98515.91
2022-08-23T09:16:22.112Z,98514.13
2022-08-23T09:18:49.052Z,98517.31
2022-08-23T09:21:16.689Z,98521.63
2022-08-23T09:23:45.677Z,98523.69
2022-08-23T09:26:25.309Z,98527.03
2022-08-23T09:28:56.472Z,98523.22
2022-08-23T09:31:41.340Z,98522.44
2022-08-23T09:34:08.539Z,98520.09
2022-08-23T09:36:38.104Z,98518.00
2022-08-23T09:39:09.047Z,98523.88
2022-08-23T09:41:40.213Z,98521.59
2022-08-23T09:44:13.409Z,98521.06
2022-08-23T09:46:42.711Z,98519.50
2022-08-23T09:49:27.100Z,98519.97
2022-08-23T09:51:56.068Z,98514.63
2022-08-23T09:54:34.679Z,98531.75
2022-08-23T09:57:06.345Z,98527.28
2022-08-23T09:59:51.809Z,98523.56
2022-08-23T10:02:32.737Z,98525.94
2022-08-23T10:05:03.043Z,98522.94
2022-08-23T10:07:35.324Z,98526.44
2022-08-23T10:10:32.466Z,98528.91
2022-08-23T10:13:00.317Z,98528.91
2022-08-23T10:15:52.272Z,98529.72
2022-08-23T10:18:18.884Z,98529.50
2022-08-23T10:20:57.185Z,98524.16
2022-08-23T10:23:43.963Z,98521.22
2022-08-23T10:26:19.606Z,98514.00
2022-08-23T10:29:06.646Z,98518.88
2022-08-23T10:31:40.012Z,98520.78
2022-08-23T10:34:22.004Z,98518.66
2022-08-23T10:37:09.821Z,98522.44
2022-08-23T10:39:48.473Z,98514.69
2022-08-23T10:42:28.337Z,98526.72
2022-08-23T10:45:10.392Z,98520.88
2022-08-23T10:47:46.032Z,98517.66
2022-08-23T10:50:19.342Z,98520.97
2022-08-23T10:52:57.206Z,98522.84
2022-08-23T10:55:45.884Z,98523.88
2022-08-23T10:58:18.945Z,98525.25
2022-08-23T11:00:45.994Z,98530.31
2022-08-23T11:03:35.308Z,98522.31
2022-08-23T11:06:26.738Z,98523.97
2022-08-23T11:09:04.011Z,98517.00
2022-08-23T11:11:40.854Z,98523.41
2022-08-23T11:14:11.839Z,98523.44
2022-08-23T11:16:43.120Z,98528.53
2022-08-23T11:19:15.631Z,98530.41
2022-08-23T11:21:46.538Z,98523.19
2022-08-23T11:24:13.097Z,98529.88
2022-08-23T11:26:41.342Z,98527.19
2022-08-23T11:29:07.983Z,98523.50
2022-08-23T11:31:48.852Z,98523.72
2022-08-23T11:34:31.000Z,98531.75
2022-08-23T11:37:26.506Z,98531.22
2022-08-23T11:40:08.805Z,98524.84
2022-08-23T11:42:50.219Z,98527.53
2022-08-23T11:45:42.360Z,98533.91
2022-08-23T11:48:19.360Z,98535.81
2022-08-23T11:51:04.930Z,98535.50
2022-08-23T11:53:41.615Z,98537.41
2022-08-23T11:56:38.812Z,98534.97
2022-08-23T11:59:20.637Z,98533.16
2022-08-23T12:01:47.516Z,98536.06
2022-08-23T12:04:38.654Z,98544.63
2022-08-23T12:07:12.579Z,98537.16
2022-08-23T12:09:40.145Z,98545.41
2022-08-23T12:12:25.163Z,98549.44
2022-08-23T12:14:55.782Z,98547.28
2022-08-23T12:17:25.867Z,98538.75
2022-08-23T12:19:53.836Z,98546.25
2022-08-23T12:22:24.180Z,98547.59
2022-08-23T12:24:59.565Z,98536.91
2022-08-23T12:27:36.658Z,98544.94
2022-08-23T12:30:10.899Z,98535.81
2022-08-23T12:33:12.634Z,98540.66
2022-08-23T12:35:39.275Z,98547.06
2022-08-23T12:38:17.992Z,98552.97
2022-08-23T12:40:48.844Z,98545.19
2022-08-23T12:43:22.446Z,98543.34
2022-08-23T12:45:54.480Z,98544.66
2022-08-23T12:48:25.065Z,98540.66
2022-08-23T12:50:57.403Z,98541.75
2022-08-23T12:53:42.642Z,98535.56
2022-08-23T12:56:31.996Z,98539.34
2022-08-23T12:59:04.918Z,98544.13
2022-08-23T13:01:37.233Z,98546.81
2022-08-23T13:04:10.895Z,98542.00
2022-08-23T13:06:43.792Z,98544.41
2022-08-23T13:09:31.287Z,98540.66
2022-08-23T13:11:59.001Z,98546.00
2022-08-23T13:14:44.566Z,98552.41
2022-08-23T13:17:36.903Z,98552.19
2022-08-23T13:20:04.544Z,98549.25
2022-08-23T13:22:33.027Z,98551.41
2022-08-23T13:25:29.213Z,98555.19
2022-08-23T13:27:58.462Z,98554.41
2022-08-23T13:30:29.543Z,98557.06
2022-08-23T13:33:18.104Z,98555.22
2022-08-23T13:35:50.061Z,98556.84
2022-08-23T13:38:21.844Z,98548.75
2022-08-23T13:40:59.324Z,98544.47
2022-08-23T13:43:31.708Z,98541.75
2022-08-23T13:46:10.610Z,98546.84
2022-08-23T13:48:39.145Z,98548.69
2022-08-23T13:51:26.074Z,98544.69
2022-08-23T13:53:54.582Z,98540.13
2022-08-23T13:56:22.167Z,98540.13
2022-08-23T13:59:00.696Z,98537.47
2022-08-23T14:01:27.868Z,98532.38
2022-08-23T14:03:54.630Z,98533.19
2022-08-23T14:06:21.540Z,98528.09
2022-08-23T14:08:48.545Z,98529.44
2022-08-23T14:11:16.159Z,98540.16
2022-08-23T14:13:47.829Z,98535.59
2022-08-23T14:16:39.114Z,98527.59
2022-08-23T14:19:16.507Z,98534.81
2022-08-23T14:21:46.799Z,98531.06
2022-08-23T14:24:13.490Z,98523.59
2022-08-23T14:26:51.860Z,98530.53
2022-08-23T14:29:22.246Z,98525.19
2022-08-23T14:31:49.615Z,98530.00
2022-08-23T14:34:16.252Z,98528.16
2022-08-23T14:38:00.235Z,98523.34
2022-08-23T14:39:29.604Z,98521.97
2022-08-23T14:41:56.238Z,98526.53
2022-08-23T14:44:22.943Z,98522.25
2022-08-23T14:46:49.680Z,98525.72
2022-08-23T14:49:16.320Z,98526.03
2022-08-23T14:51:46.320Z,98522.00
2022-08-23T14:54:23.270Z,98528.91
2022-08-23T14:56:49.942Z,98525.75
2022-08-23T14:59:16.940Z,98526.78
2022-08-23T15:01:43.961Z,98531.34
2022-08-23T15:04:11.845Z,98532.94
2022-08-23T15:06:50.277Z,98525.72
2022-08-23T15:09:27.467Z,98531.06
2022-08-23T15:14:41.678Z,98531.88
2022-08-23T15:17:08.407Z,98530.00
2022-08-23T15:19:35.246Z,98527.31
2022-08-23T15:22:18.516Z,98530.25
2022-08-23T15:24:49.201Z,98530.81
2022-08-23T15:27:17.848Z,98532.69
2022-08-23T15:29:44.481Z,98536.94
2022-08-23T15:32:12.470Z,98531.59
2022-08-23T15:34:46.110Z,98537.53
2022-08-23T15:37:14.177Z,98525.75
2022-08-23T15:39:42.062Z,98530.81
2022-08-23T15:42:08.922Z,98543.69
2022-08-23T15:44:35.486Z,98541.53
2022-08-23T15:47:04.843Z,98536.47
2022-08-23T15:49:36.263Z,98549.59
2022-08-23T15:52:04.676Z,98542.88
2022-08-23T15:54:33.837Z,98545.03
2022-08-23T15:57:02.033Z,98549.84
2022-08-23T15:59:35.650Z,98549.03
2022-08-23T16:02:02.356Z,98547.19
2022-08-23T16:04:32.558Z,98551.72
2022-08-23T16:07:06.724Z,98552.25
2022-08-23T16:09:35.680Z,98558.69
2022-08-23T16:14:47.809Z,98556.84
2022-08-23T16:17:24.238Z,98543.44
2022-08-23T16:19:55.574Z,98545.28
2022-08-23T16:22:24.527Z,98544.50
2022-08-23T16:24:56.994Z,98551.72
2022-08-23T16:27:36.457Z,98542.34
2022-08-23T16:30:04.941Z,98554.66
2022-08-23T16:32:37.085Z,98553.88
2022-08-23T16:35:04.523Z,98550.38
2022-08-23T16:37:38.312Z,98556.00
2022-08-23T16:40:10.604Z,98554.91
2022-08-23T16:42:40.022Z,98550.88
2022-08-23T16:45:09.090Z,98551.94
2022-08-23T16:47:41.995Z,98549.81
2022-08-23T16:50:12.780Z,98561.31
2022-08-23T16:52:39.623Z,98557.06
2022-08-23T16:55:09.654Z,98561.59
2022-08-23T16:57:37.052Z,98557.31
2022-08-23T17:00:08.169Z,98559.47
2022-08-23T17:02:37.534Z,98564.81
2022-08-23T17:05:08.799Z,98565.88
2022-08-23T17:07:35.517Z,98565.59
2022-08-23T17:10:02.259Z,98566.44
2022-08-23T17:12:29.145Z,98564.00
2022-08-23T17:14:57.401Z,98574.19
2022-08-23T17:17:24.602Z,98573.66
2022-08-23T17:19:51.291Z,98569.34
2022-08-23T17:22:18.271Z,98570.97
2022-08-23T17:24:44.926Z,98572.84
2022-08-23T17:27:14.003Z,98575.00
2022-08-23T17:29:46.272Z,98569.63
2022-08-23T17:32:13.859Z,98580.09
2022-08-23T17:34:40.541Z,98577.13
2022-08-23T17:37:17.883Z,98578.75
2022-08-23T17:39:44.596Z,98574.19
2022-08-23T17:42:11.205Z,98576.06
2022-08-23T17:44:37.896Z,98582.25
2022-08-23T17:47:11.634Z,98587.88
2022-08-23T17:49:38.218Z,98588.97
2022-08-23T17:52:05.125Z,98591.13
2022-08-23T17:54:32.582Z,98596.47
2022-08-23T17:57:00.804Z,98599.16
2022-08-23T17:59:27.382Z,98599.94
2022-08-23T18:01:53.981Z,98601.00
2022-08-23T18:04:20.639Z,98607.47
2022-08-23T18:06:47.300Z,98610.38
2022-08-23T18:09:14.389Z,98613.09
2022-08-23T18:11:41.848Z,98613.88
2022-08-23T18:14:08.903Z,98618.19
2022-08-23T18:16:36.010Z,98622.72
2022-08-23T18:19:05.230Z,98632.09
2022-08-23T18:21:33.120Z,98631.84
2022-08-23T18:23:59.699Z,98637.19
2022-08-23T18:26:43.001Z,98634.25
2022-08-23T18:29:12.008Z,98628.84
2022-08-23T18:31:41.204Z,98636.59
2022-08-23T18:34:08.707Z,98640.88
2022-08-23T18:36:36.239Z,98637.66
2022-08-23T18:39:04.950Z,98642.50
2022-08-23T18:41:31.712Z,98649.47
2022-08-23T18:43:59.779Z,98646.78
2022-08-23T18:46:34.331Z,98652.13
2022-08-23T18:49:01.045Z,98657.22
2022-08-23T18:51:27.751Z,98659.09
2022-08-23T18:53:54.368Z,98657.47
2022-08-23T18:56:21.348Z,98663.91
2022-08-23T18:58:48.059Z,98671.94
2022-08-23T19:01:33.464Z,98682.09
2022-08-23T19:04:03.154Z,98682.63
2022-08-23T19:06:30.884Z,98691.44
2022-08-23T19:08:58.676Z,98686.34
2022-08-23T19:11:25.309Z,98692.81
2022-08-23T19:13:51.875Z,98694.41
2022-08-23T19:16:21.628Z,98685.84
2022-08-23T19:18:50.386Z,98692.78
2022-08-23T19:21:19.080Z,98693.06
2022-08-23T19:23:46.397Z,98692.53
2022-08-23T19:26:15.747Z,98691.19
2022-08-23T19:28:42.930Z,98697.06
2022-08-23T19:31:11.006Z,98701.38
2022-08-23T19:33:38.461Z,98696.28
2022-08-23T19:36:05.600Z,98699.75
2022-08-23T19:38:32.725Z,98699.22
2022-08-23T19:41:00.062Z,98697.59
2022-08-23T19:43:26.942Z,98700.56
2022-08-23T19:45:54.701Z,98705.09
2022-08-23T19:48:22.042Z,98704.28
2022-08-23T19:50:49.466Z,98708.84
2022-08-23T19:53:16.434Z,98708.03
2022-08-23T19:55:44.896Z,98704.28
2022-08-23T19:58:13.073Z,98705.63
2022-08-23T20:00:40.083Z,98707.50
2022-08-23T20:03:07.910Z,98705.63
2022-08-23T20:05:34.539Z,98711.50
2022-08-23T20:08:01.442Z,98710.44
2022-08-23T20:10:28.267Z,98709.09
2022-08-23T20:12:54.875Z,98709.09
2022-08-23T20:15:22.214Z,98709.09
2022-08-23T20:17:48.758Z,98712.56
2022-08-23T20:20:15.501Z,98714.69
2022-08-23T20:22:57.525Z,98715.25
2022-08-23T20:25:24.473Z,98715.25
2022-08-23T20:27:51.057Z,98710.94
2022-08-23T20:30:17.664Z,98706.66
2022-08-23T20:32:44.273Z,98710.94
2022-08-23T20:35:11.727Z,98710.69
2022-08-23T20:37:39.004Z,98705.59
2022-08-23T20:40:07.542Z,98705.84
2022-08-23T20:42:34.179Z,98712.28
2022-08-23T20:45:00.752Z,98717.13
2022-08-23T20:47:27.738Z,98708.53
2022-08-23T20:49:54.466Z,98710.41
2022-08-23T20:52:21.126Z,98715.22
2022-08-23T20:54:47.769Z,98718.94
2022-08-23T20:57:14.481Z,98719.22
2022-08-23T20:59:44.358Z,98705.84
2022-08-23T21:02:11.901Z,98707.72
2022-08-23T21:04:40.159Z,98711.44
2022-08-23T21:07:08.287Z,98711.44
2022-08-23T21:09:35.588Z,98704.47
2022-08-23T21:12:02.206Z,98705.53
2022-08-23T21:14:28.811Z,98705.53
2022-08-23T21:16:55.382Z,98708.22
2022-08-23T21:19:21.980Z,98704.47
2022-08-23T21:21:48.887Z,98708.22
2022-08-23T21:24:16.221Z,98712.78
2022-08-23T21:26:42.899Z,98710.38
2022-08-23T21:29:10.711Z,98710.63
2022-08-23T21:31:40.198Z,98710.91
2022-08-23T21:34:07.851Z,98720.50
2022-08-23T21:36:37.023Z,98718.91
2022-08-23T21:39:04.679Z,98717.81
2022-08-23T21:41:31.179Z,98725.31
2022-08-23T21:43:58.263Z,98721.00
2022-08-23T21:46:24.928Z,98724.78
2022-08-23T21:48:51.518Z,98729.06
2022-08-23T21:51:18.209Z,98727.44
2022-08-23T21:53:44.802Z,98722.66
2022-08-23T21:56:11.353Z,98722.09
2022-08-23T21:58:37.953Z,98720.78
2022-08-23T22:01:04.626Z,98723.72
2022-08-23T22:03:31.175Z,98723.16
2022-08-23T22:05:57.845Z,98722.63
2022-08-23T22:08:24.406Z,98727.97
2022-08-23T22:10:58.212Z,98728.50
2022-08-23T22:13:28.114Z,98719.91
2022-08-23T22:15:54.858Z,98728.50
2022-08-23T22:18:21.507Z,98725.56
2022-08-23T22:20:48.058Z,98725.84
2022-08-23T22:23:14.643Z,98732.50
2022-08-23T22:25:41.308Z,98721.81
2022-08-23T22:28:08.091Z,98717.53
2022-08-23T22:30:35.016Z,98716.44
2022-08-23T22:33:01.910Z,98723.16
2022-08-23T22:35:28.920Z,98714.03
2022-08-23T22:38:13.356Z,98722.91
2022-08-23T22:40:47.697Z,98720.72
2022-08-23T22:43:14.426Z,98719.38
2022-08-23T22:45:58.499Z,98713.25
2022-08-23T22:48:29.240Z,98719.38
2022-08-23T22:51:06.224Z,98700.91
2022-08-23T22:53:33.842Z,98703.34
2022-08-23T22:56:00.672Z,98699.06
2022-08-23T22:58:31.038Z,98693.94
2022-08-23T23:00:58.060Z,98690.47
2022-08-23T23:03:24.721Z,98691.53
2022-08-23T23:05:51.343Z,98687.81
2022-08-23T23:08:35.436Z,98692.38
2022-08-23T23:11:05.587Z,98686.19
2022-08-23T23:13:32.786Z,98687.53
2022-08-23T23:16:02.894Z,98686.75
2022-08-23T23:18:29.738Z,98689.16
2022-08-23T23:21:00.332Z,98678.72
2022-08-23T23:23:29.031Z,98682.19
2022-08-23T23:25:55.824Z,98680.03
2022-08-23T23:28:22.784Z,98669.84
2022-08-23T23:30:51.354Z,98675.44
2022-08-23T23:33:19.401Z,98675.19
2022-08-23T23:35:46.137Z,98682.66
2022-08-23T23:38:13.365Z,98677.00
2022-08-23T23:40:40.496Z,98677.56
2022-08-23T23:43:07.618Z,98675.41
2022-08-23T23:45:39.629Z,98671.41
2022-08-23T23:48:08.583Z,98671.41
2022-08-23T23:50:38.972Z,98676.50
2022-08-23T23:53:11.562Z,98667.97
2022-08-23T23:55:38.401Z,98662.59
2022-08-23T23:58:05.054Z,98663.13
